Time;durP1;ratioP1;P1;durP2;ratioP2;P2;SDS_P1;SDS_P2;PMS_P1;PMS_P2;Temp;Humidity;BMP_temperature;BMP_pressure;BME280_temperature;BME280_humidity;BME280_pressure;Samples;Min_cycle;Max_cycle;Signal;HPM_P1;HPM_P2
2022/07/09 00:00:20;;;;;;;8.02;6.43;;;;;;;30.59;46.67;101344.91;4198133;28;20040;-59
2022/07/09 00:02:21;;;;;;;7.07;6.38;;;;;;;30.61;46.31;101353.88;4198028;28;20041;-59
2022/07/09 00:04:26;;;;;;;7.70;7.00;;;;;;;30.61;46.71;101351.06;4197717;28;20033;-60
2022/07/09 00:06:28;;;;;;;7.40;6.70;;;;;;;30.61;46.53;101351.06;4197740;28;20040;-59
2022/07/09 00:08:35;;;;;;;8.43;7.05;;;;;;;30.55;46.43;101352.38;4197717;28;20036;-59
2022/07/09 00:10:40;;;;;;;7.70;6.90;;;;;;;30.62;46.30;101362.00;4197947;28;20033;-59
2022/07/09 00:12:47;;;;;;;7.28;6.38;;;;;;;30.61;46.51;101359.53;4197768;28;20040;-60
2022/07/09 00:14:50;;;;;;;6.70;6.10;;;;;;;30.62;46.61;101361.19;4197872;28;20089;-60
2022/07/09 00:16:54;;;;;;;7.88;7.03;;;;;;;30.61;46.85;101368.00;4198019;28;20048;-60
2022/07/09 00:18:56;;;;;;;6.80;6.10;;;;;;;30.59;46.37;101370.31;4197512;28;20105;-60
2022/07/09 00:20:57;;;;;;;7.22;6.50;;;;;;;30.61;46.61;101371.66;4197629;28;20410;-59
2022/07/09 00:22:59;;;;;;;6.95;6.25;;;;;;;30.60;46.60;101371.97;4197521;28;20361;-60
2022/07/09 00:25:01;;;;;;;7.15;6.00;;;;;;;30.59;46.54;101367.50;4197444;28;20075;-59
2022/07/09 00:27:02;;;;;;;6.60;5.85;;;;;;;30.58;46.41;101368.66;4197776;28;20446;-59
2022/07/09 00:29:04;;;;;;;7.45;6.40;;;;;;;30.59;46.83;101378.78;4197509;28;20097;-60
2022/07/09 00:31:09;;;;;;;6.72;6.07;;;;;;;30.60;46.87;101374.78;4197313;28;20479;-60
2022/07/09 00:33:10;;;;;;;6.68;5.78;;;;;;;30.60;46.47;101377.63;4197127;28;20101;-60
2022/07/09 00:35:11;;;;;;;6.07;5.47;;;;;;;30.60;46.59;101360.66;4197259;28;20117;-59
2022/07/09 00:37:13;;;;;;;6.18;5.57;;;;;;;30.60;46.72;101369.16;4197751;28;20057;-59
2022/07/09 00:39:14;;;;;;;7.07;6.38;;;;;;;30.47;46.82;101350.41;4196711;28;20082;-60
2022/07/09 00:41:16;;;;;;;7.75;5.88;;;;;;;30.59;46.83;101367.50;4197745;28;20036;-60
2022/07/09 00:43:19;;;;;;;6.40;5.90;;;;;;;30.58;46.91;101374.31;4197592;28;20037;-59
2022/07/09 00:45:20;;;;;;;5.82;5.30;;;;;;;30.58;46.63;101375.16;4197576;28;20446;-59
2022/07/09 00:47:22;;;;;;;6.60;5.95;;;;;;;30.58;46.54;101374.31;4197631;28;20036;-60
2022/07/09 00:49:29;;;;;;;7.75;6.03;;;;;;;30.59;46.70;101375.97;4197337;28;20036;-59
2022/07/09 00:51:34;;;;;;;6.40;5.80;;;;;;;30.56;46.42;101365.34;4197483;28;20098;-60
2022/07/09 00:53:35;;;;;;;7.60;6.13;;;;;;;30.58;46.72;101371.50;4197720;28;20105;-59
2022/07/09 00:55:38;;;;;;;6.82;5.65;;;;;;;30.58;46.63;101368.66;4196773;28;20040;-60
2022/07/09 00:57:41;;;;;;;5.65;5.03;;;;;;;30.57;46.55;101364.19;4197445;28;20041;-60
2022/07/09 00:59:42;;;;;;;7.07;6.38;;;;;;;30.57;46.58;101367.03;4197204;28;20044;-60
2022/07/09 01:01:50;;;;;;;6.85;6.20;;;;;;;30.55;46.81;101374.97;4197075;28;20032;-59
2022/07/09 01:03:54;;;;;;;6.32;5.75;;;;;;;30.59;46.68;101375.97;4197080;28;20549;-58
2022/07/09 01:05:58;;;;;;;6.10;5.60;;;;;;;30.58;46.65;101379.97;4199741;28;20066;-59
2022/07/09 01:08:00;;;;;;;7.25;5.82;;;;;;;30.57;46.59;101378.31;4200420;28;20109;-59
2022/07/09 01:10:01;;;;;;;6.57;5.50;;;;;;;30.38;46.89;101340.00;4200490;28;20460;-59
2022/07/09 01:12:06;;;;;;;5.95;5.35;;;;;;;30.59;46.84;101370.31;4200242;28;20037;-59
2022/07/09 01:14:07;;;;;;;5.70;5.05;;;;;;;30.57;46.93;101367.03;4200417;28;20044;-59
2022/07/09 01:16:15;;;;;;;5.75;5.15;;;;;;;30.55;46.74;101374.97;4200145;28;20468;-59
2022/07/09 01:18:18;;;;;;;6.15;5.55;;;;;;;30.50;46.84;101373.16;4200235;28;20097;-59
2022/07/09 01:20:23;;;;;;;6.35;5.75;;;;;;;30.57;47.00;101378.31;4200619;28;20521;-59
2022/07/09 01:22:24;;;;;;;6.38;5.78;;;;;;;30.55;46.97;101380.63;4200513;28;20094;-59
2022/07/09 01:24:29;;;;;;;6.22;5.72;;;;;;;30.57;47.02;101378.31;4200628;28;20074;-59
2022/07/09 01:26:35;;;;;;;6.97;6.28;;;;;;;30.56;46.93;101385.09;4200460;28;20048;-59
2022/07/09 01:28:37;;;;;;;6.22;5.72;;;;;;;30.57;46.98;101389.63;4200165;28;20086;-59
2022/07/09 01:30:40;;;;;;;6.20;5.63;;;;;;;30.56;46.74;101400.09;4200367;28;20056;-59
2022/07/09 01:32:44;;;;;;;5.80;5.28;;;;;;;30.57;46.85;101395.25;4200110;28;20540;-59
2022/07/09 01:34:46;;;;;;;5.47;4.97;;;;;;;30.56;47.09;101400.09;4200231;28;20101;-59
2022/07/09 01:36:47;;;;;;;5.93;5.32;;;;;;;30.56;47.03;101404.88;4200185;28;20036;-59
2022/07/09 01:38:49;;;;;;;6.00;5.50;;;;;;;30.56;47.22;101404.88;4199903;28;20040;-59
2022/07/09 01:40:58;;;;;;;8.20;6.10;;;;;;;30.54;47.37;101401.56;4200478;28;20406;-59
2022/07/09 01:43:00;;;;;;;6.35;5.78;;;;;;;30.51;47.30;101396.59;4200186;28;20044;-59
2022/07/09 01:45:01;;;;;;;5.45;5.03;;;;;;;30.55;47.14;101411.69;4200327;28;20086;-60
2022/07/09 01:47:03;;;;;;;6.57;5.97;;;;;;;30.55;47.07;101414.53;4200250;28;20079;-59
2022/07/09 01:49:07;;;;;;;6.00;5.40;;;;;;;30.54;46.90;101419.34;4199831;28;20082;-59
2022/07/09 01:51:09;;;;;;;6.93;6.07;;;;;;;30.56;46.96;101427.47;4199775;28;20040;-59
2022/07/09 01:53:11;;;;;;;5.60;5.07;;;;;;;30.55;46.87;101446.41;4200069;28;20040;-59
2022/07/09 01:55:12;;;;;;;5.95;5.38;;;;;;;30.55;46.96;101443.59;4199522;28;20036;-59
2022/07/09 01:57:13;;;;;;;6.40;5.80;;;;;;;30.56;47.08;101461.38;4200187;28;20078;-59
2022/07/09 01:59:15;;;;;;;6.70;6.10;;;;;;;30.55;47.14;101459.72;4199608;28;20468;-59
2022/07/09 02:01:17;;;;;;;5.43;4.93;;;;;;;30.56;46.99;101467.00;4200203;28;20032;-60
2022/07/09 02:03:18;;;;;;;5.90;5.30;;;;;;;30.55;47.09;101466.19;4197151;28;20106;-59
2022/07/09 02:05:20;;;;;;;6.05;5.35;;;;;;;30.55;46.96;101471.00;4199470;28;20044;-59
2022/07/09 02:07:21;;;;;;;5.95;5.45;;;;;;;30.55;47.21;101471.84;4200022;28;20024;-59
2022/07/09 02:09:25;;;;;;;5.53;5.13;;;;;;;30.54;47.07;101464.53;4199647;28;20117;-59
2022/07/09 02:11:30;;;;;;;6.05;5.43;;;;;;;30.55;47.09;101459.72;4199880;28;20102;-59
2022/07/09 02:13:31;;;;;;;5.68;5.13;;;;;;;30.56;47.35;101467.00;4199893;28;20530;-59
2022/07/09 02:15:33;;;;;;;6.00;5.32;;;;;;;30.56;47.43;101455.72;4199736;28;20118;-59
2022/07/09 02:17:37;;;;;;;6.43;5.80;;;;;;;30.56;47.20;101450.06;4199180;28;20564;-59
2022/07/09 02:19:39;;;;;;;5.78;5.28;;;;;;;30.57;47.05;101451.75;4199639;28;20526;-60
2022/07/09 02:21:43;;;;;;;6.35;5.75;;;;;;;30.55;47.13;101448.41;4199717;28;20419;-60
2022/07/09 02:23:45;;;;;;;6.25;5.65;;;;;;;30.57;47.21;101451.75;4199354;28;20418;-59
2022/07/09 02:25:50;;;;;;;5.55;5.05;;;;;;;30.53;47.32;101439.47;4199613;28;20082;-59
2022/07/09 02:27:51;;;;;;;;;;;;;;;30.55;46.46;101448.41;4200181;28;20090;-59
2022/07/09 02:29:52;;;;;;;6.03;5.38;;;;;;;30.58;46.95;101447.75;4199608;28;19916;-61
2022/07/09 02:31:57;;;;;;;5.88;5.25;;;;;;;30.58;47.19;101444.94;4199752;28;20097;-60
2022/07/09 02:33:58;;;;;;;5.18;4.65;;;;;;;30.59;47.19;101444.59;4199096;28;20048;-60
2022/07/09 02:36:00;;;;;;;5.78;5.00;;;;;;;30.41;47.32;101422.34;4199351;28;20048;-59
2022/07/09 02:38:01;;;;;;;7.00;5.03;;;;;;;30.58;47.05;101450.56;4198940;28;20118;-61
2022/07/09 02:40:04;;;;;;;5.55;5.05;;;;;;;30.57;46.73;101451.75;4199129;28;20037;-59
2022/07/09 02:42:11;;;;;;;5.95;4.90;;;;;;;30.56;47.00;101445.28;4199368;28;20032;-59
2022/07/09 02:44:12;;;;;;;5.72;5.00;;;;;;;30.50;46.73;101452.25;4199324;28;20074;-59
2022/07/09 02:46:13;;;;;;;5.38;4.90;;;;;;;30.55;47.17;101459.72;4198837;28;20389;-59
2022/07/09 02:48:15;;;;;;;5.25;4.57;;;;;;;30.55;46.72;101460.53;4198892;28;20468;-60
2022/07/09 02:50:16;;;;;;;5.13;4.60;;;;;;;30.50;46.83;101459.88;4198226;28;20094;-61
2022/07/09 02:52:17;;;;;;;5.35;4.68;;;;;;;30.51;46.91;101458.72;4199098;28;20048;-60
2022/07/09 02:54:19;;;;;;;4.97;4.50;;;;;;;30.55;46.82;101459.72;4199061;28;20033;-60
2022/07/09 02:56:20;;;;;;;4.80;4.40;;;;;;;30.54;46.96;101456.06;4199068;28;20094;-59
2022/07/09 02:58:21;;;;;;;5.30;4.80;;;;;;;30.55;47.02;101459.72;4198760;28;20048;-60
2022/07/09 03:00:23;;;;;;;5.20;4.55;;;;;;;30.52;47.11;101460.41;4199071;28;20040;-60
2022/07/09 03:02:27;;;;;;;5.35;4.88;;;;;;;30.53;47.08;101467.69;4199057;28;20086;-60
2022/07/09 03:04:28;;;;;;;6.30;4.97;;;;;;;30.54;47.21;101469.34;4198942;28;20036;-60
2022/07/09 03:06:29;;;;;;;5.30;4.80;;;;;;;30.55;47.02;101471.00;4199084;28;20319;-60
2022/07/09 03:08:34;;;;;;;5.60;5.10;;;;;;;30.46;47.09;101468.19;4198424;28;20101;-60
2022/07/09 03:10:35;;;;;;;;;;;;;;;30.54;46.67;101477.81;4199373;28;20680;-60
2022/07/09 03:12:36;;;;;;;4.63;4.22;;;;;;;30.58;46.63;101482.47;4199186;28;19916;-60
2022/07/09 03:14:38;;;;;;;4.45;3.78;;;;;;;30.58;46.85;101476.00;4198448;28;20082;-59
2022/07/09 03:16:39;;;;;;;4.57;4.03;;;;;;;30.57;46.88;101474.34;4198807;28;20086;-60
2022/07/09 03:18:40;;;;;;;4.20;3.80;;;;;;;30.54;46.77;101475.00;4198110;28;20044;-60
2022/07/09 03:20:42;;;;;;;3.97;3.58;;;;;;;30.54;46.62;101483.47;4198705;28;20102;-59
2022/07/09 03:22:43;;;;;;;4.05;3.33;;;;;;;30.53;46.41;101485.47;4198340;28;20097;-59
2022/07/09 03:24:44;;;;;;;3.75;3.35;;;;;;;30.53;46.57;101476.19;4198637;28;20066;-60
2022/07/09 03:26:49;;;;;;;3.35;3.10;;;;;;;30.53;46.61;101481.81;4198750;28;20040;-59
2022/07/09 03:28:50;;;;;;;3.70;3.40;;;;;;;30.52;46.55;101483.00;4197527;28;20098;-60
2022/07/09 03:30:51;;;;;;;3.90;3.50;;;;;;;30.53;46.78;101473.34;4198664;28;20484;-60
2022/07/09 03:32:53;;;;;;;4.07;3.58;;;;;;;30.52;46.53;101455.56;4198478;28;20114;-59
2022/07/09 03:34:54;;;;;;;3.92;3.63;;;;;;;30.52;46.65;101454.75;4196883;28;20048;-60
2022/07/09 03:36:55;;;;;;;3.90;3.50;;;;;;;30.52;46.78;101449.94;4198393;28;20106;-59
2022/07/09 03:38:57;;;;;;;3.90;3.50;;;;;;;30.51;46.68;101430.47;4197986;28;20033;-60
2022/07/09 03:40:58;;;;;;;4.25;3.53;;;;;;;30.52;46.90;101432.16;4198466;28;20045;-60
2022/07/09 03:43:02;;;;;;;4.13;3.60;;;;;;;30.52;46.81;101437.81;4198392;28;20036;-59
2022/07/09 03:45:04;;;;;;;4.05;3.60;;;;;;;30.51;46.77;101433.31;4198415;28;20361;-59
2022/07/09 03:47:06;;;;;;;4.55;3.90;;;;;;;30.49;46.82;101427.16;4198366;28;20086;-59
2022/07/09 03:49:08;;;;;;;4.18;3.78;;;;;;;30.53;47.03;101433.81;4197932;28;20034;-60
2022/07/09 03:51:09;;;;;;;4.15;3.75;;;;;;;30.53;47.11;101445.09;4198294;28;20045;-59
2022/07/09 03:53:13;;;;;;;4.32;3.97;;;;;;;30.49;46.87;101455.41;4198276;28;20106;-59
2022/07/09 03:55:15;;;;;;;4.93;4.43;;;;;;;30.51;47.11;101459.53;4197695;28;20040;-60
2022/07/09 03:57:16;;;;;;;4.60;4.00;;;;;;;30.52;46.90;101466.06;4198013;28;20040;-60
2022/07/09 03:59:21;;;;;;;4.20;3.80;;;;;;;30.50;47.04;101463.53;4197906;28;20086;-59
2022/07/09 04:01:22;;;;;;;4.60;4.20;;;;;;;30.50;46.85;101468.34;4198124;28;20106;-60
2022/07/09 04:03:26;;;;;;;5.93;4.00;;;;;;;30.44;47.11;101464.06;4198205;28;20138;-60
2022/07/09 04:05:27;;;;;;;6.40;4.05;;;;;;;30.49;46.82;101478.00;4198067;28;20040;-60
2022/07/09 04:07:32;;;;;;;3.70;3.40;;;;;;;30.49;46.94;101478.81;4198129;28;20082;-59
2022/07/09 04:09:33;;;;;;;4.57;4.03;;;;;;;30.49;47.14;101478.00;4197829;28;20090;-59
2022/07/09 04:11:37;;;;;;;4.40;3.75;;;;;;;30.48;46.81;101467.88;4198012;28;20036;-60
2022/07/09 04:13:38;;;;;;;4.13;3.75;;;;;;;30.35;47.00;101439.47;4197892;28;20040;-59
2022/07/09 04:15:43;;;;;;;4.30;3.90;;;;;;;30.50;46.92;101462.72;4198265;28;20028;-59
2022/07/09 04:17:44;;;;;;;4.25;3.85;;;;;;;30.47;47.00;101446.44;4197955;28;20052;-60
2022/07/09 04:19:45;;;;;;;4.10;3.70;;;;;;;30.47;47.04;101452.06;4197820;28;20032;-60
2022/07/09 04:21:47;;;;;;;4.70;4.20;;;;;;;30.50;47.18;101457.06;4197932;28;20036;-60
2022/07/09 04:23:55;;;;;;;4.45;4.05;;;;;;;30.49;47.19;101447.75;4197481;28;20534;-61
2022/07/09 04:25:56;;;;;;;4.10;3.80;;;;;;;30.46;46.89;101433.47;4197903;28;20036;-60
2022/07/09 04:27:59;;;;;;;3.72;3.15;;;;;;;30.44;47.06;101430.16;4197944;28;20074;-61
2022/07/09 04:30:03;;;;;;;4.45;4.05;;;;;;;30.50;47.13;101446.59;4190483;28;20032;-61
2022/07/09 04:32:05;;;;;;;4.03;3.72;;;;;;;30.47;47.04;101441.63;4197649;28;20166;-61
2022/07/09 04:34:09;;;;;;;4.30;3.90;;;;;;;30.49;46.99;101439.28;4197677;28;20049;-60
2022/07/09 04:36:10;;;;;;;3.50;3.20;;;;;;;30.50;46.97;101445.75;4197404;28;20107;-60
2022/07/09 04:38:15;;;;;;;4.03;3.67;;;;;;;30.47;47.07;101443.59;4197439;28;20089;-60
2022/07/09 04:40:16;;;;;;;3.63;3.33;;;;;;;30.50;47.11;101437.28;4197562;28;20028;-60
2022/07/09 04:42:19;;;;;;;4.30;4.00;;;;;;;30.52;47.23;101437.81;4197490;28;20098;-60
2022/07/09 04:44:20;;;;;;;5.57;3.85;;;;;;;30.46;47.03;101419.34;4197495;28;20066;-60
2022/07/09 04:46:25;;;;;;;4.30;3.90;;;;;;;30.48;47.08;101429.16;4197740;28;20040;-60
2022/07/09 04:48:29;;;;;;;5.35;3.95;;;;;;;30.45;47.27;101421.34;4197400;28;20045;-60
2022/07/09 04:50:37;;;;;;;4.03;3.63;;;;;;;30.47;47.15;101421.00;4197823;28;20037;-60
2022/07/09 04:52:39;;;;;;;4.28;3.88;;;;;;;30.47;47.21;101441.63;4197684;28;20036;-60
2022/07/09 04:54:40;;;;;;;4.82;4.30;;;;;;;30.48;47.32;101436.81;4197541;28;20044;-60
2022/07/09 04:56:41;;;;;;;4.20;3.80;;;;;;;30.48;47.24;101434.00;4197491;28;20040;-60
2022/07/09 04:58:51;;;;;;;4.82;4.38;;;;;;;30.48;47.19;101436.81;4197078;28;20087;-60
2022/07/09 05:00:52;;;;;;;4.78;4.00;;;;;;;30.47;46.96;101435.13;4197637;28;20102;-59
2022/07/09 05:02:54;;;;;;;4.28;3.60;;;;;;;30.49;46.96;101444.13;4197616;28;20041;-59
2022/07/09 05:04:58;;;;;;;4.15;3.75;;;;;;;30.50;46.93;101445.75;4197628;28;20045;-59
2022/07/09 05:06:59;;;;;;;3.83;3.53;;;;;;;30.50;47.19;101445.75;4197820;28;20028;-59
2022/07/09 05:09:00;;;;;;;3.78;3.47;;;;;;;30.49;47.18;101449.75;4197246;28;20029;-60
2022/07/09 05:11:02;;;;;;;4.30;3.70;;;;;;;30.49;47.00;101444.13;4197604;28;20045;-59
2022/07/09 05:13:09;;;;;;;4.20;3.90;;;;;;;30.48;47.00;101453.75;4197404;28;20036;-59
2022/07/09 05:15:11;;;;;;;4.65;3.90;;;;;;;30.47;47.16;101446.44;4197486;28;20041;-59
2022/07/09 05:17:13;;;;;;;3.95;3.63;;;;;;;30.48;47.35;101453.75;4197473;28;20114;-59
2022/07/09 05:19:14;;;;;;;3.70;3.35;;;;;;;30.45;47.14;101443.94;4197218;28;20036;-59
2022/07/09 05:21:15;;;;;;;4.10;3.70;;;;;;;30.48;47.00;101448.09;4197520;28;20090;-59
2022/07/09 05:23:17;;;;;;;5.50;3.60;;;;;;;30.47;47.09;101437.94;4197386;28;20090;-59
2022/07/09 05:25:21;;;;;;;4.20;3.90;;;;;;;30.47;47.04;101440.78;4197079;28;20033;-59
2022/07/09 05:27:23;;;;;;;4.05;3.72;;;;;;;30.44;47.20;101427.34;4197082;28;20040;-59
2022/07/09 05:29:26;;;;;;;3.50;3.20;;;;;;;30.47;47.11;101435.13;4195557;28;20137;-59
2022/07/09 05:31:27;;;;;;;4.15;3.42;;;;;;;30.48;47.12;101439.63;4197225;28;20037;-59
2022/07/09 05:33:29;;;;;;;4.47;3.95;;;;;;;30.46;47.15;101436.31;4197401;28;20168;-60
2022/07/09 05:35:30;;;;;;;3.97;3.58;;;;;;;30.46;46.66;101436.31;4197148;28;20095;-59
2022/07/09 05:37:32;;;;;;;3.65;3.33;;;;;;;30.41;47.10;101422.34;4197393;28;20044;-60
2022/07/09 05:39:36;;;;;;;3.92;3.60;;;;;;;30.42;46.94;101421.19;4197155;28;20526;-60
2022/07/09 05:41:37;;;;;;;3.30;3.00;;;;;;;30.45;47.07;101427.00;4197308;28;20396;-59
2022/07/09 05:43:39;;;;;;;3.45;3.15;;;;;;;30.45;46.81;101423.34;4197556;28;20093;-59
2022/07/09 05:45:40;;;;;;;3.17;2.95;;;;;;;30.46;46.86;101433.47;4197316;28;20036;-59
2022/07/09 05:47:41;;;;;;;3.60;3.30;;;;;;;30.45;46.75;101427.00;4197129;28;20045;-60
2022/07/09 05:49:45;;;;;;;3.35;3.05;;;;;;;30.45;46.78;101429.00;4197100;28;20040;-60
2022/07/09 05:51:49;;;;;;;3.97;3.58;;;;;;;30.46;47.02;101422.19;4197453;28;20040;-60
2022/07/09 05:53:51;;;;;;;3.30;2.83;;;;;;;30.45;47.06;101426.19;4200343;28;20472;-59
2022/07/09 05:55:52;;;;;;;3.78;3.28;;;;;;;30.44;46.73;101424.53;4200193;28;20102;-59
2022/07/09 05:57:57;;;;;;;4.30;3.38;;;;;;;30.44;46.87;101425.34;4200036;28;20117;-59
2022/07/09 06:00:07;;;;;;;4.07;3.53;;;;;;;30.38;46.79;101419.06;4199929;28;20045;-58
2022/07/09 06:02:08;;;;;;;3.80;3.50;;;;;;;30.45;47.02;101426.19;4200000;28;20045;-59
2022/07/09 06:04:10;;;;;;;3.42;3.13;;;;;;;30.44;46.94;101427.34;4200117;28;20048;-59
2022/07/09 06:06:15;;;;;;;3.65;3.13;;;;;;;30.34;47.00;101418.06;4200293;28;20086;-59
2022/07/09 06:08:16;;;;;;;;;;;;;;;30.44;47.09;101441.47;4199906;28;20472;-59
2022/07/09 06:10:20;;;;;;;3.60;3.30;;;;;;;30.48;46.71;101445.28;4200336;28;19938;-59
2022/07/09 06:12:21;;;;;;;3.45;3.15;;;;;;;30.48;46.86;101442.47;4199659;28;20040;-60
2022/07/09 06:14:23;;;;;;;3.92;3.20;;;;;;;30.47;46.78;101435.13;4199849;28;20041;-60
2022/07/09 06:16:27;;;;;;;3.40;3.10;;;;;;;30.46;46.84;101434.31;4199425;28;20036;-60
2022/07/09 06:18:28;;;;;;;3.92;3.13;;;;;;;30.45;47.03;101438.31;4199534;28;20036;-60
2022/07/09 06:20:31;;;;;;;3.20;2.75;;;;;;;30.44;46.76;101430.16;4199359;28;20421;-60
2022/07/09 06:22:32;;;;;;;3.50;3.20;;;;;;;30.39;46.85;101425.53;4199787;28;20037;-60
2022/07/09 06:24:42;;;;;;;3.63;3.20;;;;;;;30.41;46.84;101431.66;4199781;28;20041;-59
2022/07/09 06:26:46;;;;;;;3.80;3.38;;;;;;;30.35;47.05;101422.53;4199325;28;20036;-60
2022/07/09 06:28:49;;;;;;;3.85;3.55;;;;;;;30.44;47.00;101433.00;4199405;28;20036;-60
2022/07/09 06:30:53;;;;;;;3.35;3.05;;;;;;;30.42;47.03;101426.84;4199363;28;20082;-60
2022/07/09 06:32:54;;;;;;;4.90;3.38;;;;;;;30.42;46.95;101426.84;4199640;28;20070;-60
2022/07/09 06:34:58;;;;;;;3.88;3.45;;;;;;;30.42;47.07;101429.66;4199368;28;20044;-60
2022/07/09 06:36:59;;;;;;;3.63;3.33;;;;;;;30.43;47.20;101425.69;4199650;28;20044;-59
2022/07/09 06:41:23;;;;;;;3.25;2.95;;;;;;;30.42;47.05;101427.66;4198887;28;20066;-61
2022/07/09 06:43:24;;;;;;;3.13;2.83;;;;;;;30.42;46.93;101430.50;4199045;28;20045;-60
2022/07/09 06:45:26;;;;;;;3.78;3.00;;;;;;;30.41;46.91;101426.00;4198968;28;20040;-59
2022/07/09 06:47:27;;;;;;;3.70;3.20;;;;;;;30.36;47.09;101415.72;4199390;28;20090;-60
2022/07/09 06:49:29;;;;;;;3.40;3.10;;;;;;;30.40;47.11;101424.34;4197471;28;20041;-60
2022/07/09 06:51:30;;;;;;;3.70;3.20;;;;;;;30.40;46.99;101417.88;4199350;28;20040;-59
2022/07/09 06:53:38;;;;;;;3.67;3.38;;;;;;;30.40;46.99;101429.19;4199214;28;20426;-60
2022/07/09 06:55:39;;;;;;;3.78;3.22;;;;;;;30.41;47.03;101425.19;4198882;28;20036;-60
2022/07/09 06:57:41;;;;;;;3.53;2.90;;;;;;;30.40;47.06;101434.81;4198756;28;20040;-60
2022/07/09 06:59:48;;;;;;;3.90;3.22;;;;;;;30.38;47.12;101430.34;4198480;28;20044;-61
2022/07/09 07:01:52;;;;;;;3.67;3.28;;;;;;;30.37;46.86;101431.50;4199115;28;20067;-59
2022/07/09 07:03:56;;;;;;;3.10;2.90;;;;;;;30.38;46.75;101430.34;4198902;28;20086;-60
2022/07/09 07:06:00;;;;;;;3.50;2.55;;;;;;;30.38;46.97;101432.34;4199208;28;20037;-60
2022/07/09 07:08:05;;;;;;;2.83;2.63;;;;;;;30.37;46.93;101428.66;4199167;28;20429;-60
2022/07/09 07:10:08;;;;;;;2.88;2.67;;;;;;;30.38;46.90;101432.34;4199007;28;20033;-60
2022/07/09 07:12:15;;;;;;;2.83;2.63;;;;;;;30.37;46.76;101428.66;4198837;28;20044;-59
2022/07/09 07:14:17;;;;;;;3.33;3.03;;;;;;;30.37;47.07;101431.50;4198943;28;20078;-59
2022/07/09 07:16:19;;;;;;;2.65;2.42;;;;;;;30.37;47.07;101431.50;4199103;28;20041;-60
2022/07/09 07:18:27;;;;;;;3.33;2.83;;;;;;;30.35;46.73;101418.88;4198196;28;20040;-59
2022/07/09 07:20:30;;;;;;;3.50;3.00;;;;;;;30.36;46.95;101421.38;4199003;28;20094;-60
2022/07/09 07:22:32;;;;;;;3.35;3.05;;;;;;;30.32;46.69;101408.25;4198731;28;20036;-59
2022/07/09 07:24:33;;;;;;;3.40;3.10;;;;;;;30.36;46.86;101412.06;4198125;28;20090;-60
2022/07/09 07:26:35;;;;;;;2.60;2.40;;;;;;;30.34;46.78;101409.59;4198693;28;20036;-60
2022/07/09 07:28:49;;;;;;;3.30;2.85;;;;;;;30.28;46.95;101410.91;4198001;28;20048;-60
2022/07/09 07:30:50;;;;;;;2.92;2.63;;;;;;;30.35;46.85;101422.53;4198562;28;20098;-60
2022/07/09 07:33:20;;;;;;;3.22;2.72;;;;;;;30.15;46.85;101402.63;4198654;28;20545;-59
2022/07/09 07:35:21;;;;;;;3.33;3.03;;;;;;;30.34;46.86;101412.41;4198504;28;20067;-59
2022/07/09 07:37:22;;;;;;;5.03;2.88;;;;;;;30.35;46.86;101418.88;4198124;28;20094;-60
2022/07/09 07:39:26;;;;;;;3.47;3.17;;;;;;;30.34;47.10;101414.41;4198231;28;20521;-59
2022/07/09 07:41:30;;;;;;;2.92;2.63;;;;;;;30.32;46.95;101411.91;4198515;28;20090;-60
2022/07/09 07:43:32;;;;;;;3.10;2.90;;;;;;;30.21;47.01;101404.97;4198587;28;20032;-60
2022/07/09 07:45:34;;;;;;;3.33;3.03;;;;;;;30.24;46.95;101398.66;4197958;28;20098;-59
2022/07/09 07:47:35;;;;;;;3.13;2.72;;;;;;;30.27;47.02;101411.25;4198458;28;20110;-60
2022/07/09 07:49:36;;;;;;;3.35;3.05;;;;;;;30.32;46.88;101417.56;4198163;28;20044;-60
2022/07/09 07:51:38;;;;;;;3.13;2.80;;;;;;;30.32;47.16;101408.25;4198270;28;20040;-60
2022/07/09 07:53:45;;;;;;;3.10;2.80;;;;;;;30.24;47.01;101393.00;4198270;28;20044;-60
2022/07/09 07:55:47;;;;;;;3.30;3.00;;;;;;;30.31;46.89;101413.06;4198359;28;20093;-59
2022/07/09 07:57:52;;;;;;;2.97;2.78;;;;;;;30.31;46.90;101415.06;4198203;28;20121;-60
2022/07/09 07:59:58;;;;;;;2.97;2.78;;;;;;;30.25;47.24;101410.78;4197662;28;20102;-60
2022/07/09 08:02:00;;;;;;;3.58;2.80;;;;;;;30.30;46.85;101416.25;4198390;28;20029;-60
2022/07/09 08:04:04;;;;;;;3.13;2.80;;;;;;;30.26;47.16;101413.25;4198136;28;20063;-60
2022/07/09 08:06:09;;;;;;;4.45;3.33;;;;;;;30.29;47.09;101406.94;4198009;28;20041;-59
2022/07/09 08:08:10;;;;;;;3.58;3.28;;;;;;;30.30;46.87;101408.59;4197899;28;20037;-59
2022/07/09 08:10:11;;;;;;;3.45;3.15;;;;;;;30.31;46.88;101415.06;4197864;28;20094;-59
2022/07/09 08:12:13;;;;;;;3.20;2.92;;;;;;;30.30;46.87;101414.25;4197924;28;20040;-59
2022/07/09 08:14:17;;;;;;;3.58;3.25;;;;;;;30.27;47.23;101403.59;4197321;28;20044;-59
2022/07/09 08:16:19;;;;;;;3.20;2.90;;;;;;;30.28;46.78;101404.44;4196298;28;20040;-59
2022/07/09 08:18:23;;;;;;;3.60;3.30;;;;;;;30.29;46.87;101408.94;4193906;28;20491;-60
2022/07/09 08:20:25;;;;;;;3.13;2.83;;;;;;;30.29;46.76;101401.31;4197581;28;20044;-60
2022/07/09 08:22:29;;;;;;;3.20;2.90;;;;;;;30.29;46.81;101395.66;4197679;28;20036;-60
2022/07/09 08:24:30;;;;;;;3.38;2.85;;;;;;;30.30;46.88;101404.94;4197599;28;20044;-60
2022/07/09 08:26:32;;;;;;;3.13;2.88;;;;;;;30.29;46.87;101395.66;4198022;28;20048;-60
2022/07/09 08:28:34;;;;;;;3.45;3.15;;;;;;;30.29;46.97;101395.66;4197645;28;20080;-60
2022/07/09 08:30:35;;;;;;;3.20;2.90;;;;;;;30.26;46.98;101384.19;4197572;28;20143;-60
2022/07/09 08:32:38;;;;;;;2.80;2.60;;;;;;;30.28;46.91;101387.50;4197593;28;20036;-60
2022/07/09 08:34:39;;;;;;;3.50;3.08;;;;;;;30.24;47.18;101393.00;4197246;28;20036;-60
2022/07/09 08:36:44;;;;;;;3.05;2.75;;;;;;;30.28;46.77;101398.78;4197781;28;20048;-60
2022/07/09 08:38:49;;;;;;;3.25;2.95;;;;;;;30.23;46.91;101396.97;4197051;28;20109;-60
2022/07/09 08:40:51;;;;;;;3.30;3.00;;;;;;;30.28;46.75;101410.09;4197792;28;20078;-60
2022/07/09 08:42:54;;;;;;;3.65;2.85;;;;;;;30.19;46.90;101395.16;4197436;28;20040;-60
2022/07/09 08:44:56;;;;;;;3.40;3.10;;;;;;;30.27;47.03;101414.06;4197733;28;20044;-60
2022/07/09 08:47:03;;;;;;;3.30;2.92;;;;;;;30.25;46.71;101405.13;4196190;28;20476;-61
2022/07/09 08:49:10;;;;;;;2.97;2.75;;;;;;;30.25;46.91;101411.59;4197356;28;20468;-61
2022/07/09 08:51:13;;;;;;;3.10;2.80;;;;;;;30.27;46.68;101409.25;4197635;28;20036;-60
2022/07/09 08:53:18;;;;;;;3.55;2.85;;;;;;;30.27;46.72;101409.25;4197106;28;20106;-60
2022/07/09 08:55:20;;;;;;;3.10;2.80;;;;;;;30.26;46.79;101413.25;4197362;28;20036;-60
2022/07/09 08:57:21;;;;;;;3.33;3.03;;;;;;;30.27;46.71;101420.56;4197515;28;20114;-61
2022/07/09 08:59:22;;;;;;;3.55;3.13;;;;;;;30.27;46.78;101422.53;4197341;28;20044;-60
2022/07/09 09:01:26;;;;;;;3.30;3.00;;;;;;;30.27;46.71;101420.56;4197268;28;20036;-61
2022/07/09 09:03:27;;;;;;;3.13;2.93;;;;;;;30.27;46.86;101426.19;4197490;28;20033;-60
2022/07/09 09:05:29;;;;;;;3.28;2.97;;;;;;;30.26;46.75;101418.91;4197564;28;20323;-60
2022/07/09 09:07:30;;;;;;;3.55;3.25;;;;;;;30.25;46.84;101422.88;4197773;28;20468;-60
2022/07/09 09:09:35;;;;;;;3.13;2.83;;;;;;;30.26;46.66;101418.91;4197153;28;20450;-60
2022/07/09 09:11:37;;;;;;;2.92;2.63;;;;;;;30.26;46.84;101421.72;4197576;28;20139;-60
2022/07/09 09:13:45;;;;;;;3.53;3.22;;;;;;;30.25;46.59;101427.72;4197322;28;20032;-60
2022/07/09 09:15:47;;;;;;;3.35;3.05;;;;;;;30.25;46.65;101428.53;4197484;28;20040;-60
2022/07/09 09:17:48;;;;;;;3.13;2.92;;;;;;;30.26;46.67;101426.53;4197428;28;20056;-60
2022/07/09 09:19:49;;;;;;;3.40;2.67;;;;;;;30.25;46.74;101437.00;4196885;28;20480;-60
2022/07/09 09:21:54;;;;;;;3.22;2.92;;;;;;;30.22;46.83;101428.38;4197502;28;20435;-59
2022/07/09 09:23:59;;;;;;;3.33;3.03;;;;;;;30.25;46.74;101434.19;4197429;28;20045;-60
2022/07/09 09:26:15;;;;;;;3.28;2.92;;;;;;;30.21;46.74;101427.53;4197135;28;20036;-60
2022/07/09 09:28:16;;;;;;;3.45;3.15;;;;;;;30.25;46.67;101437.00;4199828;28;20097;-60
2022/07/09 09:30:18;;;;;;;3.17;2.88;;;;;;;30.21;46.88;101427.53;4200373;28;20048;-60
2022/07/09 09:32:25;;;;;;;3.10;2.80;;;;;;;30.24;46.65;101446.66;4200478;28;20037;-60
2022/07/09 09:34:35;;;;;;;2.92;2.70;;;;;;;30.23;46.88;101430.84;4200012;28;20048;-60